createdAt,value
2023-04-14T00:00:36.845Z,6.57
2023-04-14T00:03:03.951Z,5.78
2023-04-14T00:05:31.501Z,5.30
2023-04-14T00:07:58.158Z,5.90
2023-04-14T00:10:25.051Z,6.25
2023-04-14T00:12:52.023Z,5.78
2023-04-14T00:15:18.856Z,4.97
2023-04-14T00:17:45.491Z,6.22
2023-04-14T00:20:12.139Z,5.55
2023-04-14T00:22:38.687Z,6.18
2023-04-14T00:25:05.653Z,6.15
2023-04-14T00:27:32.151Z,9.13
2023-04-14T00:29:58.662Z,7.55
2023-04-14T00:32:25.286Z,6.93
2023-04-14T00:34:51.944Z,6.38
2023-04-14T00:37:18.462Z,5.13
2023-04-14T00:39:44.956Z,4.88
2023-04-14T00:42:11.654Z,4.80
2023-04-14T00:44:38.128Z,4.50
2023-04-14T00:47:05.670Z,5.47
2023-04-14T00:49:32.413Z,4.85
2023-04-14T00:51:59.415Z,4.65
2023-04-14T00:54:26.518Z,5.07
2023-04-14T00:56:54.038Z,4.90
2023-04-14T00:59:20.924Z,4.88
2023-04-14T01:01:47.466Z,4.40
2023-04-14T01:04:15.959Z,5.18
2023-04-14T01:06:42.534Z,5.05
2023-04-14T01:09:09.590Z,5.57
2023-04-14T01:11:45.283Z,4.78
2023-04-14T01:14:50.593Z,4.47
2023-04-14T01:17:22.747Z,4.53
2023-04-14T01:20:20.606Z,4.97
2023-04-14T01:22:55.319Z,4.50
2023-04-14T01:26:10.748Z,5.07
2023-04-14T01:29:34.377Z,4.43
2023-04-14T01:32:05.652Z,4.72
2023-04-14T01:34:50.724Z,4.90
2023-04-14T01:37:21.450Z,5.45
2023-04-14T01:39:54.318Z,5.40
2023-04-14T01:42:25.288Z,5.47
2023-04-14T01:44:56.913Z,5.68
2023-04-14T01:47:26.257Z,5.57
2023-04-14T01:49:53.847Z,6.65
2023-04-14T01:52:21.145Z,5.55
2023-04-14T01:54:51.716Z,5.15
2023-04-14T01:57:22.646Z,4.95
2023-04-14T01:59:51.967Z,5.55
2023-04-14T02:02:21.216Z,5.03
2023-04-14T02:04:49.628Z,6.15
2023-04-14T02:07:17.593Z,5.88
2023-04-14T02:09:45.607Z,5.47
2023-04-14T02:12:12.694Z,4.65
2023-04-14T02:14:41.811Z,5.38
2023-04-14T02:17:11.757Z,5.15
2023-04-14T02:19:39.306Z,5.40
2023-04-14T02:22:05.996Z,6.47
2023-04-14T02:24:32.648Z,5.00
2023-04-14T02:27:07.140Z,5.60
2023-04-14T02:29:36.097Z,5.20
2023-04-14T02:32:11.497Z,5.03
2023-04-14T02:34:55.617Z,5.72
2023-04-14T02:37:27.270Z,5.20
2023-04-14T02:39:59.141Z,5.65
2023-04-14T02:42:27.454Z,5.38
2023-04-14T02:45:22.529Z,6.47
2023-04-14T02:47:54.457Z,6.07
2023-04-14T02:50:22.532Z,5.78
2023-04-14T02:52:51.705Z,5.45
2023-04-14T02:55:23.067Z,5.38
2023-04-14T02:57:51.655Z,4.78
2023-04-14T03:00:19.146Z,5.60
2023-04-14T03:02:47.265Z,5.30
2023-04-14T03:05:14.460Z,5.53
2023-04-14T03:07:43.982Z,6.10
2023-04-14T03:10:14.448Z,6.10
2023-04-14T03:12:42.197Z,6.53
2023-04-14T03:15:10.255Z,6.15
2023-04-14T03:17:38.097Z,6.78
2023-04-14T03:20:05.302Z,5.57
2023-04-14T03:22:36.135Z,5.95
2023-04-14T03:25:02.760Z,5.43
2023-04-14T03:27:30.388Z,5.70
2023-04-14T03:30:03.706Z,5.63
2023-04-14T03:32:35.793Z,6.55
2023-04-14T03:35:02.974Z,6.50
2023-04-14T03:37:32.081Z,6.40
2023-04-14T03:40:02.164Z,6.93
2023-04-14T03:42:30.026Z,6.68
2023-04-14T03:44:58.566Z,7.10
2023-04-14T03:47:26.992Z,7.18
2023-04-14T03:49:57.596Z,7.85
2023-04-14T03:52:26.809Z,6.40
2023-04-14T03:54:58.928Z,6.03
2023-04-14T03:57:29.220Z,6.88
2023-04-14T03:59:56.963Z,6.90
2023-04-14T04:02:25.737Z,7.13
2023-04-14T04:04:54.403Z,8.52
2023-04-14T04:07:21.855Z,8.40
2023-04-14T04:09:50.679Z,8.50
2023-04-14T04:12:20.360Z,9.25
2023-04-14T04:14:47.142Z,10.85
2023-04-14T04:17:16.239Z,8.13
2023-04-14T04:19:44.683Z,8.27
2023-04-14T04:22:14.384Z,7.57
2023-04-14T04:24:42.468Z,9.23
2023-04-14T04:27:20.289Z,9.25
2023-04-14T04:29:53.752Z,9.90
2023-04-14T04:32:20.976Z,8.45
2023-04-14T04:34:50.900Z,8.57
2023-04-14T04:37:19.354Z,7.82
2023-04-14T04:39:45.904Z,8.40
2023-04-14T04:42:12.407Z,10.60
2023-04-14T04:44:38.935Z,9.27
2023-04-14T04:47:05.800Z,7.38
2023-04-14T04:49:32.354Z,6.65
2023-04-14T04:51:59.703Z,7.32
2023-04-14T04:54:27.128Z,6.90
2023-04-14T04:56:54.006Z,6.90
2023-04-14T04:59:20.445Z,7.15
2023-04-14T05:01:47.060Z,6.53
2023-04-14T05:04:13.595Z,7.72
2023-04-14T05:06:40.219Z,8.00
2023-04-14T05:09:07.141Z,6.78
2023-04-14T05:11:33.959Z,8.75
2023-04-14T05:14:01.192Z,9.73
2023-04-14T05:16:28.411Z,7.88
2023-04-14T05:18:54.918Z,8.15
2023-04-14T05:21:21.612Z,7.60
2023-04-14T05:23:48.270Z,7.75
2023-04-14T05:26:38.812Z,7.60
2023-04-14T05:29:02.043Z,6.53
2023-04-14T05:31:28.650Z,6.25
2023-04-14T05:33:55.134Z,6.90
2023-04-14T05:36:21.621Z,7.70
2023-04-14T05:38:48.098Z,7.40
2023-04-14T05:41:14.584Z,7.28
2023-04-14T05:43:41.140Z,6.20
2023-04-14T05:46:07.754Z,6.85
2023-04-14T05:48:36.306Z,6.97
2023-04-14T05:51:02.741Z,7.40
2023-04-14T05:53:29.180Z,5.60
2023-04-14T05:55:57.151Z,6.85
2023-04-14T05:58:26.234Z,6.50
2023-04-14T06:00:52.869Z,6.00
2023-04-14T06:03:19.708Z,6.85
2023-04-14T06:05:48.173Z,5.72
2023-04-14T06:08:14.707Z,6.00
2023-04-14T06:10:41.370Z,6.95
2023-04-14T06:13:08.693Z,6.60
2023-04-14T06:15:35.239Z,6.47
2023-04-14T06:18:01.813Z,6.55
2023-04-14T06:20:32.496Z,6.13
2023-04-14T06:23:00.798Z,5.45
2023-04-14T06:25:27.260Z,6.55
2023-04-14T06:27:53.700Z,6.72
2023-04-14T06:30:20.224Z,6.15
2023-04-14T06:32:48.568Z,6.28
2023-04-14T06:35:29.643Z,7.70
2023-04-14T06:37:58.625Z,6.60
2023-04-14T06:40:25.285Z,6.85
2023-04-14T06:42:51.703Z,6.55
2023-04-14T06:45:18.261Z,6.22
2023-04-14T06:47:44.839Z,6.70
2023-04-14T06:50:12.224Z,6.00
2023-04-14T06:52:38.668Z,7.05
2023-04-14T06:55:05.600Z,7.35
2023-04-14T06:57:32.092Z,6.90
2023-04-14T06:59:58.604Z,7.07
2023-04-14T07:02:25.266Z,4.68
2023-04-14T07:04:52.128Z,6.13
2023-04-14T07:07:18.632Z,4.63
2023-04-14T07:09:45.318Z,6.68
2023-04-14T07:12:16.879Z,7.18
2023-04-14T07:14:43.583Z,6.03
2023-04-14T07:17:10.040Z,2.05
2023-04-14T07:19:36.537Z,4.93
2023-04-14T07:22:03.045Z,3.50
2023-04-14T07:24:29.525Z,6.85
2023-04-14T07:26:56.140Z,4.97
2023-04-14T07:29:22.665Z,6.07
2023-04-14T07:31:49.219Z,6.45
2023-04-14T07:34:15.693Z,7.30
2023-04-14T07:36:42.523Z,6.50
2023-04-14T07:39:09.062Z,6.03
2023-04-14T07:41:35.553Z,5.57
2023-04-14T07:44:02.341Z,6.97
2023-04-14T07:46:29.092Z,9.15
2023-04-14T07:48:55.629Z,6.10
2023-04-14T07:51:24.613Z,3.65
2023-04-14T07:53:53.001Z,11.23
2023-04-14T07:56:19.535Z,8.60
2023-04-14T07:58:46.505Z,3.38
2023-04-14T08:01:14.106Z,5.50
2023-04-14T08:03:43.567Z,6.40
2023-04-14T08:06:11.759Z,4.45
2023-04-14T08:08:39.827Z,4.63
2023-04-14T08:11:06.286Z,6.60
2023-04-14T08:13:32.771Z,5.40
2023-04-14T08:15:59.245Z,5.32
2023-04-14T08:18:25.892Z,4.55
2023-04-14T08:20:52.401Z,4.45
2023-04-14T08:23:18.909Z,4.68
2023-04-14T08:25:45.649Z,3.53
2023-04-14T08:28:12.726Z,3.10
2023-04-14T08:30:39.226Z,4.07
2023-04-14T08:33:05.787Z,3.80
2023-04-14T08:35:39.537Z,2.70
2023-04-14T08:38:08.200Z,2.38
2023-04-14T08:40:41.107Z,2.35
2023-04-14T08:43:07.829Z,3.05
2023-04-14T08:45:35.546Z,2.83
2023-04-14T08:48:03.529Z,2.65
2023-04-14T08:50:37.604Z,1.77
2023-04-14T08:53:08.567Z,2.60
2023-04-14T08:55:36.832Z,3.03
2023-04-14T08:58:04.727Z,2.60
2023-04-14T09:00:31.347Z,2.65
2023-04-14T09:02:58.799Z,2.83
2023-04-14T09:05:26.094Z,3.75
2023-04-14T09:07:53.324Z,2.75
2023-04-14T09:10:22.196Z,3.60
2023-04-14T09:12:49.289Z,3.05
2023-04-14T09:15:16.938Z,3.42
2023-04-14T09:17:43.947Z,3.25
2023-04-14T09:20:36.435Z,3.53
2023-04-14T09:22:58.568Z,2.85
2023-04-14T09:25:25.153Z,2.30
2023-04-14T09:27:52.112Z,2.30
2023-04-14T09:30:19.085Z,1.50
2023-04-14T09:32:45.614Z,1.98
2023-04-14T09:35:16.202Z,2.03
2023-04-14T09:37:44.642Z,1.27
2023-04-14T09:40:26.465Z,2.58
2023-04-14T09:42:54.136Z,2.08
2023-04-14T09:45:20.645Z,3.03
2023-04-14T09:47:47.187Z,1.75
2023-04-14T09:50:13.691Z,2.88
2023-04-14T09:52:48.425Z,3.05
2023-04-14T09:55:16.811Z,2.97
2023-04-14T09:57:44.663Z,3.25
2023-04-14T10:00:21.500Z,2.95
2023-04-14T10:02:51.044Z,3.47
2023-04-14T10:05:21.423Z,2.53
2023-04-14T10:07:47.855Z,1.52
2023-04-14T10:10:14.366Z,2.45
2023-04-14T10:12:45.672Z,1.80
2023-04-14T10:15:17.218Z,1.75
2023-04-14T10:17:43.717Z,2.88
2023-04-14T10:20:10.685Z,2.28
2023-04-14T10:22:39.094Z,2.42
2023-04-14T10:25:09.129Z,1.50
2023-04-14T10:27:35.920Z,2.25
2023-04-14T10:30:02.561Z,2.67
2023-04-14T10:32:36.686Z,2.95
2023-04-14T10:35:05.316Z,3.08
2023-04-14T10:37:35.149Z,2.85
2023-04-14T10:40:09.807Z,2.83
2023-04-14T10:42:56.080Z,2.33
2023-04-14T10:45:22.796Z,2.00
2023-04-14T10:47:50.200Z,2.05
2023-04-14T10:50:18.563Z,2.42
2023-04-14T10:52:54.250Z,1.83
2023-04-14T10:55:28.339Z,2.80
2023-04-14T10:58:06.326Z,2.95
2023-04-14T11:00:37.909Z,2.25
2023-04-14T11:03:08.553Z,2.85
2023-04-14T11:05:35.611Z,2.78
2023-04-14T11:08:16.151Z,2.20
2023-04-14T11:11:01.975Z,2.22
2023-04-14T11:13:29.910Z,2.15
2023-04-14T11:16:04.000Z,2.80
2023-04-14T11:18:30.830Z,2.30
2023-04-14T11:21:06.663Z,2.25
2023-04-14T11:23:34.794Z,3.15
2023-04-14T11:26:01.612Z,2.33
2023-04-14T11:28:38.608Z,2.33
2023-04-14T11:31:06.834Z,3.40
2023-04-14T11:33:34.379Z,2.05
2023-04-14T11:36:02.427Z,2.00
2023-04-14T11:38:30.363Z,2.25
2023-04-14T11:40:57.397Z,1.05
2023-04-14T11:43:24.828Z,2.25
2023-04-14T11:45:52.162Z,2.47
2023-04-14T11:48:20.343Z,1.50
2023-04-14T11:50:48.151Z,2.22
2023-04-14T11:53:19.007Z,2.50
2023-04-14T11:55:48.029Z,1.73
2023-04-14T11:58:20.153Z,1.98
2023-04-14T12:00:48.492Z,2.60
2023-04-14T12:03:15.416Z,2.22
2023-04-14T12:05:42.616Z,1.88
2023-04-14T12:10:57.704Z,2.00
2023-04-14T12:13:24.837Z,2.30
2023-04-14T12:15:52.761Z,1.63
2023-04-14T12:20:48.343Z,0.98
2023-04-14T12:23:15.997Z,2.00
2023-04-14T12:25:42.676Z,2.78
2023-04-14T12:28:09.221Z,1.52
2023-04-14T12:30:37.310Z,1.50
2023-04-14T12:33:13.323Z,2.25
2023-04-14T12:35:43.093Z,1.88
2023-04-14T12:38:14.382Z,2.53
2023-04-14T12:40:43.726Z,2.13
2023-04-14T12:43:10.518Z,1.85
2023-04-14T12:45:44.513Z,1.85
2023-04-14T12:48:12.315Z,2.63
2023-04-14T12:50:39.471Z,2.10
2023-04-14T12:53:25.241Z,2.30
2023-04-14T12:58:40.471Z,2.33
2023-04-14T13:01:09.378Z,2.20
2023-04-14T13:03:39.092Z,2.33
2023-04-14T13:06:05.914Z,1.95
2023-04-14T13:08:32.471Z,1.80
2023-04-14T13:10:58.926Z,1.88
2023-04-14T13:13:25.368Z,2.00
2023-04-14T13:16:14.603Z,2.38
2023-04-14T13:18:38.302Z,2.85
2023-04-14T13:21:04.941Z,3.83
2023-04-14T13:23:31.777Z,2.53
2023-04-14T13:25:59.052Z,3.38
2023-04-14T13:28:26.612Z,2.30
2023-04-14T13:30:54.757Z,2.35
2023-04-14T13:33:22.078Z,2.35
2023-04-14T13:35:48.664Z,1.70
2023-04-14T13:38:15.435Z,2.08
2023-04-14T13:40:41.987Z,2.00
2023-04-14T13:43:08.803Z,1.85
2023-04-14T13:45:35.757Z,1.80
2023-04-14T13:48:02.585Z,1.92
2023-04-14T13:50:29.739Z,2.13
2023-04-14T13:52:56.290Z,2.22
2023-04-14T13:55:22.758Z,2.35
2023-04-14T13:57:49.553Z,3.05
2023-04-14T14:00:16.332Z,1.48
2023-04-14T14:02:42.856Z,2.10
2023-04-14T14:05:10.898Z,2.03
2023-04-14T14:07:38.235Z,1.90
2023-04-14T14:10:05.727Z,1.67
2023-04-14T14:12:34.794Z,2.63
2023-04-14T14:15:01.753Z,1.83
2023-04-14T14:17:29.053Z,2.00
2023-04-14T14:19:55.774Z,1.90
2023-04-14T14:22:22.313Z,2.17
2023-04-14T14:24:48.821Z,2.15
2023-04-14T14:27:18.360Z,2.20
2023-04-14T14:29:45.121Z,1.95
2023-04-14T14:32:11.619Z,1.77
2023-04-14T14:34:39.080Z,2.25
2023-04-14T14:37:05.655Z,2.45
2023-04-14T14:39:32.672Z,2.35
2023-04-14T14:41:59.420Z,1.42
2023-04-14T14:44:26.005Z,2.10
2023-04-14T14:46:53.147Z,2.20
2023-04-14T14:49:20.961Z,2.25
2023-04-14T14:51:48.360Z,2.13
2023-04-14T14:54:14.986Z,2.28
2023-04-14T14:56:41.991Z,2.08
2023-04-14T14:59:08.564Z,1.92
2023-04-14T15:01:35.673Z,1.52
2023-04-14T15:04:03.015Z,2.08
2023-04-14T15:06:29.864Z,2.05
2023-04-14T15:08:56.808Z,2.28
2023-04-14T15:11:24.346Z,1.75
2023-04-14T15:13:51.094Z,2.10
2023-04-14T15:16:17.571Z,1.73
2023-04-14T15:18:44.776Z,2.03
2023-04-14T15:21:11.290Z,2.00
2023-04-14T15:23:39.621Z,1.90
2023-04-14T15:26:06.414Z,2.30
2023-04-14T15:28:32.892Z,2.33
2023-04-14T15:30:59.392Z,2.63
2023-04-14T15:33:26.373Z,2.40
2023-04-14T15:35:52.805Z,2.30
2023-04-14T15:38:19.828Z,2.05
2023-04-14T15:40:46.602Z,1.85
2023-04-14T15:43:13.140Z,2.10
2023-04-14T15:45:40.064Z,2.35
2023-04-14T15:48:06.701Z,3.20
2023-04-14T15:50:33.277Z,2.80
2023-04-14T15:52:59.730Z,2.65
2023-04-14T15:55:27.488Z,1.83
2023-04-14T15:57:54.070Z,2.80
2023-04-14T16:00:22.468Z,2.15
2023-04-14T16:02:49.066Z,2.20
2023-04-14T16:05:16.784Z,2.33
2023-04-14T16:07:45.525Z,2.17
2023-04-14T16:10:12.194Z,3.95
2023-04-14T16:12:39.249Z,3.20
2023-04-14T16:15:09.173Z,4.18
2023-04-14T16:17:35.757Z,3.33
2023-04-14T16:20:02.879Z,2.70
2023-04-14T16:22:31.114Z,3.70
2023-04-14T16:24:57.596Z,2.47
2023-04-14T16:27:24.181Z,2.30
2023-04-14T16:29:53.285Z,1.92
2023-04-14T16:32:19.749Z,2.30
2023-04-14T16:34:46.649Z,2.00
2023-04-14T16:37:13.185Z,1.50
2023-04-14T16:39:41.136Z,3.38
2023-04-14T16:42:09.332Z,3.80
2023-04-14T16:44:37.569Z,3.35
2023-04-14T16:47:04.034Z,2.90
2023-04-14T16:49:30.639Z,2.55
2023-04-14T16:51:57.529Z,3.03
2023-04-14T16:54:24.048Z,2.60
2023-04-14T16:56:51.904Z,3.13
2023-04-14T16:59:18.456Z,2.55
2023-04-14T17:01:45.242Z,2.70
2023-04-14T17:04:12.253Z,2.42
2023-04-14T17:06:38.953Z,2.65
2023-04-14T17:09:05.664Z,2.75
2023-04-14T17:11:32.410Z,3.67
2023-04-14T17:13:58.879Z,3.13
2023-04-14T17:16:25.363Z,3.17
2023-04-14T17:18:51.924Z,3.25
2023-04-14T17:21:18.404Z,3.35
2023-04-14T17:23:44.905Z,3.10
2023-04-14T17:26:11.480Z,3.55
2023-04-14T17:28:38.949Z,4.20
2023-04-14T17:31:14.157Z,4.28
2023-04-14T17:33:44.789Z,3.55
2023-04-14T17:36:15.512Z,2.90
2023-04-14T17:38:43.155Z,3.05
2023-04-14T17:41:10.985Z,3.50
2023-04-14T17:43:39.478Z,3.45
2023-04-14T17:46:06.379Z,3.17
2023-04-14T17:48:35.837Z,4.53
2023-04-14T17:51:03.120Z,5.15
2023-04-14T17:53:30.927Z,4.43
2023-04-14T17:55:57.743Z,4.40
2023-04-14T17:58:25.241Z,4.75
2023-04-14T18:00:52.073Z,4.20
2023-04-14T18:03:18.603Z,4.45
2023-04-14T18:05:45.363Z,4.80
2023-04-14T18:08:12.071Z,4.90
2023-04-14T18:10:39.190Z,5.28
2023-04-14T18:13:05.763Z,5.90
2023-04-14T18:15:32.244Z,6.05
2023-04-14T18:17:58.780Z,4.90
2023-04-14T18:20:26.329Z,4.20
2023-04-14T18:22:57.523Z,4.72
2023-04-14T18:25:24.040Z,6.18
2023-04-14T18:30:22.990Z,6.45
2023-04-14T18:32:55.297Z,4.32
2023-04-14T18:35:22.063Z,4.10
2023-04-14T18:37:48.745Z,4.50
2023-04-14T18:40:15.855Z,5.03
2023-04-14T18:42:42.283Z,4.05
2023-04-14T18:45:09.674Z,4.25
2023-04-14T18:47:36.262Z,4.55
2023-04-14T18:50:03.836Z,3.83
2023-04-14T18:52:30.494Z,4.03
2023-04-14T18:54:57.337Z,3.55
2023-04-14T18:57:23.897Z,8.15
2023-04-14T18:59:50.429Z,5.43
2023-04-14T19:02:16.927Z,7.05
2023-04-14T19:04:43.681Z,6.32
2023-04-14T19:07:10.639Z,7.20
2023-04-14T19:09:37.637Z,8.18
2023-04-14T19:12:04.248Z,5.88
2023-04-14T19:14:30.747Z,5.10
2023-04-14T19:16:57.902Z,4.90
2023-04-14T19:19:25.026Z,4.00
2023-04-14T19:21:51.636Z,4.78
2023-04-14T19:24:18.642Z,3.90
2023-04-14T19:26:45.151Z,4.40
2023-04-14T19:29:11.764Z,4.60
2023-04-14T19:31:38.543Z,5.10
2023-04-14T19:34:05.005Z,4.95
2023-04-14T19:36:32.325Z,5.07
2023-04-14T19:38:58.967Z,5.18
2023-04-14T19:41:25.981Z,4.68
2023-04-14T19:43:52.445Z,4.68
2023-04-14T19:46:18.987Z,5.45
2023-04-14T19:48:45.706Z,6.38
2023-04-14T19:51:12.129Z,6.20
2023-04-14T19:53:38.646Z,5.20
2023-04-14T19:56:05.700Z,4.63
2023-04-14T19:58:32.812Z,4.25
2023-04-14T20:00:59.414Z,4.05
2023-04-14T20:03:26.784Z,4.38
2023-04-14T20:05:55.863Z,4.03
2023-04-14T20:08:23.538Z,5.32
2023-04-14T20:10:52.630Z,5.40
2023-04-14T20:13:24.383Z,4.40
2023-04-14T20:15:53.835Z,4.45
2023-04-14T20:18:20.978Z,4.07
2023-04-14T20:20:48.589Z,4.80
2023-04-14T20:23:15.814Z,5.18
2023-04-14T20:25:43.955Z,5.35
2023-04-14T20:28:10.491Z,5.65
2023-04-14T20:30:37.695Z,6.07
2023-04-14T20:33:04.571Z,5.72
2023-04-14T20:35:34.712Z,5.55
2023-04-14T20:38:01.233Z,5.70
2023-04-14T20:40:27.719Z,5.82
2023-04-14T20:42:54.434Z,6.00
2023-04-14T20:45:22.078Z,5.43
2023-04-14T20:47:49.200Z,5.80
2023-04-14T20:50:16.982Z,6.30
2023-04-14T20:52:44.663Z,6.18
2023-04-14T20:55:13.298Z,8.48
2023-04-14T20:57:40.687Z,7.57
2023-04-14T21:00:10.116Z,8.32
2023-04-14T21:02:40.029Z,8.45
2023-04-14T21:05:07.012Z,8.93
2023-04-14T21:07:35.512Z,9.38
2023-04-14T21:10:04.059Z,8.75
2023-04-14T21:12:33.778Z,9.65
2023-04-14T21:15:41.649Z,7.95
2023-04-14T21:17:51.263Z,7.43
2023-04-14T21:20:17.717Z,7.55
2023-04-14T21:22:44.147Z,6.82
2023-04-14T21:25:10.594Z,7.13
2023-04-14T21:27:37.313Z,6.70
2023-04-14T21:30:04.619Z,6.90
2023-04-14T21:32:31.115Z,6.32
2023-04-14T21:34:57.804Z,6.93
2023-04-14T21:37:25.020Z,7.10
2023-04-14T21:39:51.466Z,6.95
2023-04-14T21:42:17.936Z,6.57
2023-04-14T21:44:44.490Z,6.97
2023-04-14T21:47:10.990Z,7.10
2023-04-14T21:49:37.516Z,7.63
2023-04-14T21:52:04.013Z,6.78
2023-04-14T21:54:31.818Z,6.70
2023-04-14T21:56:59.281Z,7.38
2023-04-14T21:59:25.872Z,7.18
2023-04-14T22:01:52.343Z,7.97
2023-04-14T22:04:33.122Z,8.02
2023-04-14T22:07:02.776Z,7.88
2023-04-14T22:09:29.244Z,7.65
2023-04-14T22:11:56.516Z,6.95
2023-04-14T22:14:23.534Z,10.40
2023-04-14T22:16:50.112Z,10.07
2023-04-14T22:19:16.805Z,9.95
2023-04-14T22:21:43.626Z,14.57
2023-04-14T22:24:10.407Z,14.50
2023-04-14T22:26:36.849Z,13.93
2023-04-14T22:29:04.162Z,11.60
2023-04-14T22:31:31.088Z,11.52
2023-04-14T22:33:57.598Z,10.35
2023-04-14T22:36:24.187Z,9.80
2023-04-14T22:38:50.702Z,9.82
2023-04-14T22:41:18.335Z,8.73
2023-04-14T22:43:44.851Z,7.65
2023-04-14T22:46:11.713Z,7.85
2023-04-14T22:48:38.200Z,7.18
2023-04-14T22:51:04.633Z,7.40
2023-04-14T22:53:31.345Z,7.32
2023-04-14T22:55:58.275Z,7.03
2023-04-14T22:58:25.208Z,6.97
2023-04-14T23:00:51.866Z,7.30
2023-04-14T23:03:18.443Z,7.65
2023-04-14T23:05:45.083Z,7.10
2023-04-14T23:08:11.562Z,7.72
2023-04-14T23:10:37.984Z,7.38
2023-04-14T23:13:04.447Z,8.68
2023-04-14T23:15:31.112Z,8.65
2023-04-14T23:17:57.579Z,8.13
2023-04-14T23:20:24.791Z,8.00
2023-04-14T23:22:51.462Z,7.90
2023-04-14T23:25:18.297Z,8.13
2023-04-14T23:27:44.765Z,9.25
2023-04-14T23:30:11.444Z,8.82
2023-04-14T23:32:37.931Z,8.82
2023-04-14T23:35:05.495Z,8.85
2023-04-14T23:37:31.946Z,9.23
2023-04-14T23:39:58.391Z,9.02
2023-04-14T23:42:24.835Z,8.50
2023-04-14T23:44:51.463Z,8.43
2023-04-14T23:47:18.155Z,8.57
2023-04-14T23:49:44.613Z,8.93
2023-04-14T23:52:11.200Z,8.60
2023-04-14T23:54:37.659Z,9.20
2023-04-14T23:57:04.424Z,10.05
2023-04-14T23:59:31.214Z,8.38
